Aircraft
UPR1017 PR-QAD Citation
HTDA
Julius Nyerere International Airport
FXMU
Mejametalana Airbase
Pilot:: Alex
Aircraft:: Cessna Citation CJ4
Alternate: FAOR
Network: poscon
FLIGHT DETAILS
Distance: 1502nm Duration 03h 12m
Cruise Speed: Flight Level: 30000
Validation: Validated Type Charter
Flight Fuel
ZFW: 4509
Block Fuel/Initial FOB: 2677
Flight Fuel: 1075
Cargo
Passengers: 4
Cargo: 85
ROUTE
ROUTE: DCT
REMARKS:
DATE
Date: 26-05-04
Departure Time: 1208
Cargo: 85
FLIGHT DETAILS
Crashed: No
Validator Comments: Validado por Claudenir
Flight Rating: 94
LANDING ANALYSIS
Landing wind: 63º/0 kt
Landing heading: 44º
Landing VS:: -386 ft/min
Landing IAS:: 93 kt
Landing Force G: 1 G
Landing Bank: 1
Landing Pitch: -5
Landing Flaps: 100
Navigation Lights: ON
Landing Lights: ON
Beacon Lights: ON
Strobe Lights: ON
viserfly

ALTITUDE CHART

viserfly

MAIN EVENTS

DATE EVENT IAS ALTITUDE
2026-05-04 12:06:47 FLYacars version 1.3.5 0 167
2026-05-04 12:06:47 Aircraft boarding in progress 0 167
2026-05-04 12:06:47 FLAPS 50% 0 167
2026-05-04 12:06:47 Navigation Lights ON 0 167
2026-05-04 12:06:47 Beacon Lights ON 0 167
2026-05-04 12:06:47 Strobe Lights ON 0 167
2026-05-04 12:06:47 Landing Lights ON 0 167
2026-05-04 12:06:47 Starting Engine 2 0 167
2026-05-04 12:06:47 Starting Engine 1 0 167
2026-05-04 12:06:51 Taxi Lights ON 0 167
2026-05-04 12:07:19 Aircraft taxiing to runway 4 167
2026-05-04 12:08:13 Detected Take-off roll, HDG 224, IAS 142kt, GS 144kt, G-force 1.2g, Pitch -4.8deg, Bank 0.2deg, Wind 254/00kt, Temp 15°C 142 169
2026-05-04 12:08:13 Airborne 142 169
2026-05-04 12:08:14 Gear UP, IAS 149kt, GS 150kt, ALT 25ft AGL 149 191
2026-05-04 12:08:18 FLAPS 0% 158kt, ALT 331ft 158 331
2026-05-04 12:09:58 Landing Lights OFF 223 9353
2026-05-04 12:09:58 Taxi Lights OFF 223 9353
2026-05-04 12:13:53 Aircraft on Top Of Climb at 31964ft, IAS 255kt, GS 416kt, HDG 215deg, TAT -47deg, WIND 349/0kt 255 31964
2026-05-04 14:20:51 Overspeed flag 284 32007
2026-05-04 15:15:06 Aircraft on Top Of Descent at 29498ft, IAS 225kt, GS 360kt, HDG 231deg, TAT -34deg, WIND 60/0kt 225 29498
2026-05-04 15:17:13 Landing lights OFF below 10000fts 242 8993
2026-05-04 15:17:16 Landing Lights ON 245 8571
2026-05-04 15:17:17 Taxi Lights ON 246 8447
2026-05-04 15:19:44 FLAPS 50% 168kt, ALT 7429ft 168 7429
2026-05-04 15:19:44 Gear DOWN, IAS 165kt, GS 188kt, ALT 2506ft AGL 165 7430
2026-05-04 15:20:15 FLAPS 100% 143kt, ALT 6083ft 143 6083
2026-05-04 15:21:06 Landed at destination with a landing rate of -386fpm, G-force 1.0g, Pitch -5.1deg, Bank 0.8deg, HDG 44deg, IAS 93kt, GS 103kt, Wind 063/00kt, Temp 15°C 93 5092
2026-05-04 15:21:23 Aircraft taxiing to apron 23 5065
2026-05-04 15:21:31 FLAPS 50% 4 5062
2026-05-04 15:21:31 FLAPS 0% 4 5062
2026-05-04 15:23:58 Navigation Lights OFF 0 5096
2026-05-04 15:23:58 Beacon Lights OFF 0 5096
2026-05-04 15:23:58 Strobe Lights OFF 0 5096
2026-05-04 15:23:58 Landing Lights OFF 0 5096
2026-05-04 15:23:58 Taxi Lights OFF 0 5096
2026-05-04 15:24:06 Aircraft at gate/stand, ground services are moving into position, disembarkation has begun. Remaining FOB 1602kg FLYacars v1.3.5 0 5096
viserfly

ACARS DATA

DATE IAS GS ALTITUDE FUEL CONSUMED OAT FLIGHT STATUS
2026-05-04 12:07:17 0 1 167 1 14 BOARDING
2026-05-04 12:07:47 0 0 166 4 15 TAXI TO RUNWAY
2026-05-04 12:08:17 156 155 263 15 14 TAKEOFF
2026-05-04 12:08:47 223 226 2135 27 11 INITIAL CLIMB
2026-05-04 12:09:17 246 257 4776 40 5 CLIMB
2026-05-04 12:09:47 227 247 8164 53 0 CLIMB
2026-05-04 12:10:17 211 247 12274 72 -8 CLIMB
2026-05-04 12:10:47 235 299 16473 99 -16 CLIMB
2026-05-04 12:11:17 233 317 20729 125 -24 CLIMB
2026-05-04 12:11:47 225 327 24496 148 -31 CLIMB
2026-05-04 12:12:17 214 328 27841 169 -38 CLIMB
2026-05-04 12:12:47 256 396 28600 190 -39 CLIMB
2026-05-04 12:13:17 250 401 30821 209 -44 CLIMB
2026-05-04 12:13:47 253 413 31928 223 -47 CLIMB
2026-05-04 12:14:17 263 427 32002 231 -47 ENROUTE
2026-05-04 12:14:47 260 424 32009 237 -47 ENROUTE
2026-05-04 12:15:17 258 420 32009 243 -47 ENROUTE
2026-05-04 12:15:47 257 418 32008 249 -48 ENROUTE
2026-05-04 12:16:17 256 416 32006 255 -48 ENROUTE
2026-05-04 12:16:47 255 415 32003 261 -47 ENROUTE
2026-05-04 12:17:17 254 414 32001 267 -48 ENROUTE
2026-05-04 12:17:47 254 413 32000 273 -48 ENROUTE
2026-05-04 12:18:17 253 413 31998 279 -48 ENROUTE
2026-05-04 12:18:47 253 412 31997 285 -48 ENROUTE
2026-05-04 12:19:17 253 412 31997 291 -48 ENROUTE
2026-05-04 12:19:47 252 411 31996 297 -48 ENROUTE
2026-05-04 12:20:17 252 411 31996 303 -47 ENROUTE
2026-05-04 12:20:47 252 411 31995 309 -47 ENROUTE
2026-05-04 12:21:17 252 411 31995 315 -47 ENROUTE
2026-05-04 12:21:47 252 412 31995 321 -47 ENROUTE
2026-05-04 12:22:17 252 412 31994 327 -46 ENROUTE
2026-05-04 12:22:47 252 413 31995 333 -45 ENROUTE
2026-05-04 12:23:17 252 413 31995 340 -45 ENROUTE
2026-05-04 12:23:47 253 414 31996 346 -45 ENROUTE
2026-05-04 12:24:17 253 414 31997 352 -45 ENROUTE
2026-05-04 12:24:47 253 415 31998 358 -45 ENROUTE
2026-05-04 12:25:17 253 415 31999 364 -45 ENROUTE
2026-05-04 12:25:47 253 415 32000 370 -44 ENROUTE
2026-05-04 12:26:17 253 415 32000 376 -44 ENROUTE
2026-05-04 12:26:47 253 416 32001 382 -45 ENROUTE
2026-05-04 12:27:17 253 416 32001 388 -45 ENROUTE
2026-05-04 12:27:47 254 416 32002 395 -45 ENROUTE
2026-05-04 12:28:17 254 416 32002 401 -45 ENROUTE
2026-05-04 12:28:47 253 416 32002 407 -45 ENROUTE
2026-05-04 12:29:17 254 416 32003 413 -45 ENROUTE
2026-05-04 12:29:47 254 416 32003 419 -45 ENROUTE
2026-05-04 12:30:17 254 416 32004 425 -45 ENROUTE
2026-05-04 12:30:47 254 416 32004 431 -45 ENROUTE
2026-05-04 12:31:17 254 416 32004 437 -45 ENROUTE
2026-05-04 12:31:47 254 416 32004 443 -45 ENROUTE
2026-05-04 12:32:17 254 415 32005 450 -46 ENROUTE
2026-05-04 12:32:47 254 415 32005 456 -45 ENROUTE
2026-05-04 12:33:17 254 416 32005 462 -45 ENROUTE
2026-05-04 12:33:47 254 415 32005 468 -45 ENROUTE
2026-05-04 12:34:17 254 415 32006 474 -45 ENROUTE
2026-05-04 12:34:47 253 415 32006 480 -45 ENROUTE
2026-05-04 12:35:17 253 416 32006 486 -45 ENROUTE
2026-05-04 12:35:47 253 416 32006 492 -45 ENROUTE
2026-05-04 12:36:17 254 416 32006 498 -45 ENROUTE
2026-05-04 12:36:47 254 416 32007 505 -45 ENROUTE
2026-05-04 12:37:17 254 416 32007 511 -45 ENROUTE
2026-05-04 12:37:47 253 416 32007 517 -44 ENROUTE
2026-05-04 12:38:17 253 416 32007 523 -44 ENROUTE
2026-05-04 12:38:47 253 416 32007 529 -44 ENROUTE
2026-05-04 12:39:17 253 416 32007 535 -44 ENROUTE
2026-05-04 12:39:47 254 416 32007 541 -45 ENROUTE
2026-05-04 12:40:17 254 416 32008 547 -45 ENROUTE
2026-05-04 12:40:47 253 416 32008 553 -44 ENROUTE
2026-05-04 12:41:17 253 416 32008 560 -44 ENROUTE
2026-05-04 12:41:47 253 416 32008 566 -44 ENROUTE
2026-05-04 12:42:17 253 416 32008 572 -44 ENROUTE
2026-05-04 12:42:47 252 416 32007 578 -43 ENROUTE
2026-05-04 12:43:17 252 415 32007 584 -43 ENROUTE
2026-05-04 12:43:47 252 415 32007 590 -43 ENROUTE
2026-05-04 12:44:17 252 415 32007 596 -43 ENROUTE
2026-05-04 12:44:47 252 415 32006 602 -43 ENROUTE
2026-05-04 12:45:17 252 415 32006 608 -42 ENROUTE
2026-05-04 12:45:47 251 415 32006 614 -42 ENROUTE
2026-05-04 12:46:17 251 415 32005 620 -42 ENROUTE
2026-05-04 12:46:47 251 414 32005 626 -42 ENROUTE
2026-05-04 12:47:17 251 414 32005 632 -42 ENROUTE
2026-05-04 12:47:47 251 414 32005 638 -42 ENROUTE
2026-05-04 12:48:17 251 414 32005 644 -42 ENROUTE
2026-05-04 12:48:47 251 414 32005 650 -42 ENROUTE
2026-05-04 12:49:17 251 414 32005 656 -42 ENROUTE
2026-05-04 12:49:47 251 414 32006 662 -42 ENROUTE
2026-05-04 12:50:17 251 414 32006 668 -42 ENROUTE
2026-05-04 12:50:47 251 414 32006 674 -43 ENROUTE
2026-05-04 12:51:17 251 414 32007 680 -43 ENROUTE
2026-05-04 12:51:47 252 414 32007 686 -43 ENROUTE
2026-05-04 12:52:17 251 414 32008 692 -42 ENROUTE
2026-05-04 12:52:47 252 414 32009 698 -44 ENROUTE
2026-05-04 12:53:17 252 415 32007 704 -43 ENROUTE
2026-05-04 12:53:47 252 415 32008 710 -43 ENROUTE
2026-05-04 12:54:17 253 415 32009 717 -44 ENROUTE
2026-05-04 12:54:47 253 415 32008 723 -44 ENROUTE
2026-05-04 12:55:17 253 415 32008 729 -44 ENROUTE
2026-05-04 12:55:47 253 415 32007 735 -44 ENROUTE
2026-05-04 12:56:17 253 415 32008 741 -44 ENROUTE
2026-05-04 12:56:47 253 415 32008 747 -44 ENROUTE
2026-05-04 12:57:17 253 415 32008 753 -44 ENROUTE
2026-05-04 12:57:47 253 416 32009 759 -44 ENROUTE
2026-05-04 12:58:17 253 416 32007 765 -44 ENROUTE
2026-05-04 12:58:47 253 416 32008 771 -44 ENROUTE
2026-05-04 12:59:17 253 416 32008 777 -44 ENROUTE
2026-05-04 12:59:47 253 415 32008 784 -44 ENROUTE
2026-05-04 13:00:17 253 415 32008 790 -44 ENROUTE
2026-05-04 13:00:47 253 415 32008 796 -44 ENROUTE
2026-05-04 13:01:17 253 415 32008 802 -44 ENROUTE
2026-05-04 13:01:47 253 415 32008 808 -44 ENROUTE
2026-05-04 13:02:17 253 415 32008 814 -44 ENROUTE
2026-05-04 13:02:47 253 415 32009 820 -44 ENROUTE
2026-05-04 13:03:17 252 415 32009 826 -43 ENROUTE
2026-05-04 13:03:47 253 415 32009 832 -44 ENROUTE
2026-05-04 13:04:17 252 415 32007 838 -43 ENROUTE
2026-05-04 13:04:47 252 415 32007 844 -43 ENROUTE
2026-05-04 13:05:17 252 415 32007 850 -43 ENROUTE
2026-05-04 13:05:47 252 415 32007 856 -43 ENROUTE
2026-05-04 13:06:17 252 415 32007 862 -43 ENROUTE
2026-05-04 13:06:47 252 415 32007 868 -43 ENROUTE
2026-05-04 13:07:17 252 415 32007 875 -43 ENROUTE
2026-05-04 13:07:47 251 415 32007 881 -43 ENROUTE
2026-05-04 13:08:17 252 415 32007 887 -43 ENROUTE
2026-05-04 13:08:47 252 415 32008 893 -43 ENROUTE
2026-05-04 13:09:17 253 415 32009 899 -44 ENROUTE
2026-05-04 13:09:47 253 415 32008 905 -45 ENROUTE
2026-05-04 13:10:17 253 415 32009 911 -45 ENROUTE
2026-05-04 13:10:47 253 415 32008 917 -45 ENROUTE
2026-05-04 13:11:17 253 416 32008 923 -45 ENROUTE
2026-05-04 13:11:47 253 416 32009 929 -45 ENROUTE
2026-05-04 13:12:17 254 416 32007 935 -45 ENROUTE
2026-05-04 13:12:47 254 416 32008 942 -45 ENROUTE
2026-05-04 13:13:17 254 416 32008 948 -45 ENROUTE
2026-05-04 13:13:47 254 416 32008 954 -45 ENROUTE
2026-05-04 13:14:17 254 416 32009 960 -45 ENROUTE
2026-05-04 13:14:47 254 416 32009 966 -45 ENROUTE
2026-05-04 13:15:17 254 416 32008 972 -45 ENROUTE
2026-05-04 13:15:47 254 416 32008 978 -45 ENROUTE
2026-05-04 13:16:17 254 416 32008 984 -45 ENROUTE
2026-05-04 13:16:47 254 416 32008 990 -45 ENROUTE
2026-05-04 13:17:17 253 416 32008 997 -44 ENROUTE
2026-05-04 13:17:47 253 416 32008 1003 -44 ENROUTE
2026-05-04 13:18:17 253 416 32008 1009 -44 ENROUTE
2026-05-04 13:18:47 252 416 32007 1015 -43 ENROUTE
2026-05-04 13:19:17 252 415 32006 1021 -42 ENROUTE
2026-05-04 13:19:47 251 415 32005 1027 -41 ENROUTE
2026-05-04 13:20:17 250 415 32004 1033 -40 ENROUTE
2026-05-04 13:20:47 250 414 32003 1039 -40 ENROUTE
2026-05-04 13:21:17 249 414 32001 1045 -39 ENROUTE
2026-05-04 13:21:47 249 414 32000 1051 -39 ENROUTE
2026-05-04 13:22:17 250 414 32001 1057 -40 ENROUTE
2026-05-04 13:22:47 249 414 32001 1062 -40 ENROUTE
2026-05-04 13:23:17 249 413 31997 1068 -40 ENROUTE
2026-05-04 13:23:47 250 413 31998 1074 -41 ENROUTE
2026-05-04 13:24:17 250 413 32000 1080 -41 ENROUTE
2026-05-04 13:24:47 250 413 32001 1086 -41 ENROUTE
2026-05-04 13:25:17 250 413 32001 1092 -41 ENROUTE
2026-05-04 13:25:47 250 413 32001 1098 -41 ENROUTE
2026-05-04 13:26:17 250 413 32002 1104 -41 ENROUTE
2026-05-04 13:26:47 250 413 32002 1110 -41 ENROUTE
2026-05-04 13:27:17 250 413 32002 1116 -41 ENROUTE
2026-05-04 13:27:47 249 413 32002 1122 -40 ENROUTE
2026-05-04 13:28:17 249 413 32002 1128 -39 ENROUTE
2026-05-04 13:28:47 248 414 32001 1134 -38 ENROUTE
2026-05-04 13:29:17 249 414 32001 1140 -39 ENROUTE
2026-05-04 13:29:47 249 413 32002 1146 -40 ENROUTE
2026-05-04 13:30:17 249 413 32002 1152 -40 ENROUTE
2026-05-04 13:30:47 250 413 32003 1158 -41 ENROUTE
2026-05-04 13:31:17 250 413 32004 1164 -42 ENROUTE
2026-05-04 13:31:47 250 414 32005 1170 -42 ENROUTE
2026-05-04 13:32:17 251 414 32006 1176 -43 ENROUTE
2026-05-04 13:32:47 251 414 32007 1182 -43 ENROUTE
2026-05-04 13:33:17 251 414 32008 1188 -43 ENROUTE
2026-05-04 13:33:47 252 414 32009 1194 -43 ENROUTE
2026-05-04 13:34:17 252 414 32008 1200 -43 ENROUTE
2026-05-04 13:34:47 253 415 32008 1206 -44 ENROUTE
2026-05-04 13:35:17 253 415 32008 1212 -44 ENROUTE
2026-05-04 13:35:47 253 415 32009 1218 -44 ENROUTE
2026-05-04 13:36:17 253 415 32008 1224 -44 ENROUTE
2026-05-04 13:36:47 253 416 32009 1230 -45 ENROUTE
2026-05-04 13:37:17 253 416 32007 1237 -44 ENROUTE
2026-05-04 13:37:47 253 416 32008 1243 -45 ENROUTE
2026-05-04 13:38:17 254 416 32008 1249 -45 ENROUTE
2026-05-04 13:38:47 254 416 32009 1255 -45 ENROUTE
2026-05-04 13:39:17 254 416 32008 1261 -46 ENROUTE
2026-05-04 13:39:47 254 415 32009 1267 -47 ENROUTE
2026-05-04 13:40:17 253 415 32008 1273 -44 ENROUTE
2026-05-04 13:40:47 254 415 32007 1279 -45 ENROUTE
2026-05-04 13:41:17 254 415 32008 1285 -46 ENROUTE
2026-05-04 13:41:47 254 415 32009 1292 -46 ENROUTE
2026-05-04 13:42:17 253 415 32008 1298 -45 ENROUTE
2026-05-04 13:42:47 253 415 32008 1304 -45 ENROUTE
2026-05-04 13:43:17 253 415 32009 1310 -45 ENROUTE
2026-05-04 13:43:47 253 415 32009 1316 -45 ENROUTE
2026-05-04 13:44:17 254 415 32007 1322 -45 ENROUTE
2026-05-04 13:44:47 254 415 32008 1328 -45 ENROUTE
2026-05-04 13:45:17 254 416 32008 1334 -45 ENROUTE
2026-05-04 13:45:47 254 415 32009 1340 -45 ENROUTE
2026-05-04 13:46:17 254 415 32007 1347 -45 ENROUTE
2026-05-04 13:46:47 254 415 32008 1353 -46 ENROUTE
2026-05-04 13:47:17 254 415 32008 1359 -45 ENROUTE
2026-05-04 13:47:47 254 415 32008 1365 -45 ENROUTE
2026-05-04 13:48:17 253 415 32008 1371 -45 ENROUTE
2026-05-04 13:48:47 253 415 32007 1377 -44 ENROUTE
2026-05-04 13:49:17 252 416 32007 1383 -43 ENROUTE
2026-05-04 13:49:47 253 415 32007 1389 -44 ENROUTE
2026-05-04 13:50:17 253 415 32007 1395 -44 ENROUTE
2026-05-04 13:50:47 253 415 32007 1401 -44 ENROUTE
2026-05-04 13:51:17 253 415 32007 1407 -44 ENROUTE
2026-05-04 13:51:47 253 415 32007 1414 -44 ENROUTE
2026-05-04 13:52:17 253 415 32008 1420 -44 ENROUTE
2026-05-04 13:52:47 253 415 32008 1426 -44 ENROUTE
2026-05-04 13:53:17 253 415 32008 1432 -44 ENROUTE
2026-05-04 13:53:47 252 415 32008 1438 -43 ENROUTE
2026-05-04 13:54:17 252 415 32007 1444 -42 ENROUTE
2026-05-04 13:54:47 251 415 32007 1450 -42 ENROUTE
2026-05-04 13:55:17 251 415 32007 1456 -42 ENROUTE
2026-05-04 13:55:47 251 414 32006 1462 -42 ENROUTE
2026-05-04 13:56:17 251 414 32006 1468 -42 ENROUTE
2026-05-04 13:56:47 250 414 32004 1474 -40 ENROUTE
2026-05-04 13:57:17 250 414 32004 1480 -41 ENROUTE
2026-05-04 13:57:47 250 414 32004 1486 -41 ENROUTE
2026-05-04 13:58:17 250 414 32004 1492 -41 ENROUTE
2026-05-04 13:58:47 250 414 32004 1498 -41 ENROUTE
2026-05-04 13:59:17 249 414 32004 1504 -40 ENROUTE
2026-05-04 13:59:47 249 414 32004 1510 -40 ENROUTE
2026-05-04 14:00:17 249 413 32003 1516 -39 ENROUTE
2026-05-04 14:00:47 249 413 32003 1522 -39 ENROUTE
2026-05-04 14:01:17 249 413 32003 1527 -39 ENROUTE
2026-05-04 14:01:47 249 413 32003 1533 -39 ENROUTE
2026-05-04 14:02:17 248 413 32003 1539 -38 ENROUTE
2026-05-04 14:02:47 248 413 32003 1545 -38 ENROUTE
2026-05-04 14:03:17 248 413 32003 1551 -38 ENROUTE
2026-05-04 14:03:47 248 413 32002 1557 -38 ENROUTE
2026-05-04 14:04:17 248 413 32002 1563 -38 ENROUTE
2026-05-04 14:04:47 248 413 32002 1569 -38 ENROUTE
2026-05-04 14:05:17 248 413 32002 1575 -38 ENROUTE
2026-05-04 14:05:47 248 413 32003 1581 -38 ENROUTE
2026-05-04 14:06:17 248 413 32003 1587 -38 ENROUTE
2026-05-04 14:06:47 249 413 32004 1593 -39 ENROUTE
2026-05-04 14:07:17 249 413 32004 1599 -39 ENROUTE
2026-05-04 14:07:47 249 413 32005 1604 -39 ENROUTE
2026-05-04 14:08:17 249 413 32005 1610 -39 ENROUTE
2026-05-04 14:08:47 249 413 32005 1616 -39 ENROUTE
2026-05-04 14:09:17 249 413 32006 1622 -39 ENROUTE
2026-05-04 14:09:47 249 413 32007 1628 -40 ENROUTE
2026-05-04 14:10:17 249 413 32007 1634 -40 ENROUTE
2026-05-04 14:10:47 249 413 32007 1640 -39 ENROUTE
2026-05-04 14:11:17 248 413 32007 1646 -39 ENROUTE
2026-05-04 14:11:47 249 413 32007 1652 -39 ENROUTE
2026-05-04 14:12:17 249 413 32007 1658 -39 ENROUTE
2026-05-04 14:12:47 249 413 32007 1664 -39 ENROUTE
2026-05-04 14:13:17 249 413 32008 1670 -39 ENROUTE
2026-05-04 14:13:47 249 413 32008 1676 -39 ENROUTE
2026-05-04 14:14:17 249 413 32009 1682 -40 ENROUTE
2026-05-04 14:14:47 249 413 32009 1688 -40 ENROUTE
2026-05-04 14:15:17 249 413 32007 1694 -40 ENROUTE
2026-05-04 14:15:47 249 413 32007 1700 -39 ENROUTE
2026-05-04 14:16:17 249 413 32007 1705 -39 ENROUTE
2026-05-04 14:16:47 249 413 32008 1711 -39 ENROUTE
2026-05-04 14:17:17 249 413 32008 1717 -39 ENROUTE
2026-05-04 14:17:47 248 413 32008 1723 -39 ENROUTE
2026-05-04 14:18:17 254 421 32007 1730 -39 ENROUTE
2026-05-04 14:18:47 261 433 32009 1737 -39 ENROUTE
2026-05-04 14:19:17 270 446 32007 1745 -40 ENROUTE
2026-05-04 14:19:47 276 455 32009 1753 -40 ENROUTE
2026-05-04 14:20:17 281 461 32007 1761 -40 ENROUTE
2026-05-04 14:20:47 283 465 32009 1769 -40 ENROUTE
2026-05-04 14:21:17 286 468 32007 1777 -41 ENROUTE
2026-05-04 14:21:47 277 455 32007 1783 -41 ENROUTE
2026-05-04 14:22:17 271 445 31995 1789 -41 ENROUTE
2026-05-04 14:22:47 267 439 31989 -12 -41 ENROUTE
2026-05-04 14:23:17 264 435 31993 -5 -41 ENROUTE
2026-05-04 14:23:47 263 432 31990 1 -42 ENROUTE
2026-05-04 14:24:17 262 430 31992 7 -42 ENROUTE
2026-05-04 14:24:47 261 429 31991 13 -43 ENROUTE
2026-05-04 14:25:17 260 428 31991 20 -42 ENROUTE
2026-05-04 14:25:47 260 427 31991 26 -42 ENROUTE
2026-05-04 14:26:17 259 426 31990 32 -42 ENROUTE
2026-05-04 14:26:47 259 426 31990 39 -43 ENROUTE
2026-05-04 14:27:17 258 426 31990 45 -41 ENROUTE
2026-05-04 14:27:47 259 425 31991 51 -43 ENROUTE
2026-05-04 14:28:17 259 425 31991 58 -43 ENROUTE
2026-05-04 14:28:47 259 425 31992 64 -43 ENROUTE
2026-05-04 14:29:17 259 425 31992 70 -43 ENROUTE
2026-05-04 14:29:47 259 425 31992 77 -43 ENROUTE
2026-05-04 14:30:17 259 425 31992 83 -43 ENROUTE
2026-05-04 14:30:47 259 425 31992 89 -43 ENROUTE
2026-05-04 14:31:17 259 426 31993 96 -43 ENROUTE
2026-05-04 14:31:47 259 426 31993 102 -44 ENROUTE
2026-05-04 14:32:17 259 426 31994 109 -43 ENROUTE
2026-05-04 14:32:47 259 426 31994 115 -43 ENROUTE
2026-05-04 14:33:17 259 426 31994 121 -43 ENROUTE
2026-05-04 14:33:47 259 426 31994 128 -43 ENROUTE
2026-05-04 14:34:17 259 426 31994 134 -43 ENROUTE
2026-05-04 14:34:47 259 426 31995 140 -43 ENROUTE
2026-05-04 14:35:17 259 426 31995 147 -44 ENROUTE
2026-05-04 14:35:47 259 426 31996 153 -44 ENROUTE
2026-05-04 14:36:17 259 426 31996 160 -43 ENROUTE
2026-05-04 14:36:47 259 426 31996 166 -43 ENROUTE
2026-05-04 14:37:17 260 426 31997 172 -44 ENROUTE
2026-05-04 14:37:47 260 426 31997 179 -44 ENROUTE
2026-05-04 14:38:17 260 426 31998 185 -44 ENROUTE
2026-05-04 14:38:47 260 426 31998 192 -44 ENROUTE
2026-05-04 14:39:17 260 426 31999 198 -44 ENROUTE
2026-05-04 14:39:47 260 426 31999 204 -44 ENROUTE
2026-05-04 14:40:17 260 426 32000 211 -44 ENROUTE
2026-05-04 14:40:47 260 426 32000 217 -44 ENROUTE
2026-05-04 14:41:17 260 426 32000 224 -44 ENROUTE
2026-05-04 14:41:47 260 426 32001 230 -44 ENROUTE
2026-05-04 14:42:17 260 426 32001 237 -44 ENROUTE
2026-05-04 14:42:47 260 426 32002 243 -44 ENROUTE
2026-05-04 14:43:17 260 426 32001 249 -44 ENROUTE
2026-05-04 14:43:47 260 426 32001 256 -44 ENROUTE
2026-05-04 14:44:17 260 426 31999 262 -44 ENROUTE
2026-05-04 14:44:47 260 426 32000 269 -44 ENROUTE
2026-05-04 14:45:17 260 426 32000 275 -44 ENROUTE
2026-05-04 14:45:47 259 426 32001 281 -43 ENROUTE
2026-05-04 14:46:17 259 426 32001 288 -43 ENROUTE
2026-05-04 14:46:47 259 426 32001 294 -43 ENROUTE
2026-05-04 14:47:17 259 426 32001 301 -43 ENROUTE
2026-05-04 14:47:47 259 426 32000 307 -42 ENROUTE
2026-05-04 14:48:17 259 425 32000 313 -42 ENROUTE
2026-05-04 14:48:47 259 425 32000 320 -43 ENROUTE
2026-05-04 14:49:17 258 425 32000 326 -42 ENROUTE
2026-05-04 14:49:47 258 425 32000 332 -42 ENROUTE
2026-05-04 14:50:17 258 425 32000 339 -42 ENROUTE
2026-05-04 14:50:48 258 425 32000 345 -42 ENROUTE
2026-05-04 14:51:18 258 425 31999 351 -42 ENROUTE
2026-05-04 14:51:48 257 424 31999 357 -40 ENROUTE
2026-05-04 14:52:18 258 424 31999 364 -42 ENROUTE
2026-05-04 14:52:48 257 424 31999 370 -42 ENROUTE
2026-05-04 14:53:18 256 424 31998 376 -39 ENROUTE
2026-05-04 14:53:48 257 424 31998 394 -41 ENROUTE
2026-05-04 14:54:18 257 424 31999 419 -41 ENROUTE
2026-05-04 14:54:48 257 424 31999 444 -41 ENROUTE
2026-05-04 14:55:18 256 424 31999 470 -40 ENROUTE
2026-05-04 14:55:48 254 423 31995 494 -38 ENROUTE
2026-05-04 14:56:18 254 422 31995 519 -37 ENROUTE
2026-05-04 14:56:48 255 422 31997 544 -39 ENROUTE
2026-05-04 14:57:18 256 423 32000 568 -41 ENROUTE
2026-05-04 14:57:48 256 423 32004 594 -41 ENROUTE
2026-05-04 14:58:18 256 423 32005 615 -41 ENROUTE
2026-05-04 14:58:48 256 423 32006 627 -41 ENROUTE
2026-05-04 14:59:18 256 423 32005 640 -40 ENROUTE
2026-05-04 14:59:48 256 423 31999 652 -40 ENROUTE
2026-05-04 15:00:18 255 422 32002 665 -40 ENROUTE
2026-05-04 15:00:48 254 423 32006 677 -38 ENROUTE
2026-05-04 15:01:18 254 422 32007 689 -38 ENROUTE
2026-05-04 15:01:48 254 422 32007 702 -38 ENROUTE
2026-05-04 15:02:18 253 422 31994 714 -37 ENROUTE
2026-05-04 15:02:48 253 422 31995 726 -38 ENROUTE
2026-05-04 15:03:18 253 422 32001 739 -38 ENROUTE
2026-05-04 15:03:48 254 422 32003 751 -38 ENROUTE
2026-05-04 15:04:18 254 422 32004 763 -38 ENROUTE
2026-05-04 15:04:48 254 422 32005 776 -38 ENROUTE
2026-05-04 15:05:18 254 422 32006 788 -38 ENROUTE
2026-05-04 15:05:48 254 422 32007 801 -38 ENROUTE
2026-05-04 15:06:18 254 422 32007 813 -38 ENROUTE
2026-05-04 15:06:48 254 422 32007 825 -38 ENROUTE
2026-05-04 15:07:18 254 422 32008 838 -38 ENROUTE
2026-05-04 15:07:48 254 422 32008 850 -38 ENROUTE
2026-05-04 15:08:18 254 422 32009 862 -38 ENROUTE
2026-05-04 15:08:48 254 422 32009 875 -38 ENROUTE
2026-05-04 15:09:18 254 422 32007 887 -38 ENROUTE
2026-05-04 15:09:48 254 422 32008 899 -38 ENROUTE
2026-05-04 15:10:18 254 422 32008 912 -38 ENROUTE
2026-05-04 15:10:48 254 422 32004 924 -38 ENROUTE
2026-05-04 15:11:18 254 422 32006 936 -38 ENROUTE
2026-05-04 15:11:48 254 422 32007 949 -38 ENROUTE
2026-05-04 15:12:18 254 422 32009 961 -39 ENROUTE
2026-05-04 15:12:48 254 422 32008 973 -38 ENROUTE
2026-05-04 15:13:18 254 422 32008 986 -39 ENROUTE
2026-05-04 15:13:48 254 422 32008 998 -38 ENROUTE
2026-05-04 15:14:18 254 422 32007 1011 -38 ENROUTE
2026-05-04 15:14:48 216 360 31740 1018 -38 DESCENT
2026-05-04 15:15:18 229 357 28133 1022 -31 DESCENT
2026-05-04 15:15:48 235 346 24562 1026 -24 DESCENT
2026-05-04 15:16:18 209 288 20862 1029 -16 DESCENT
2026-05-04 15:16:48 215 263 13369 1034 -1 DESCENT
2026-05-04 15:17:18 246 281 8391 1037 9 DESCENT
2026-05-04 15:17:48 200 228 7448 1040 10 DESCENT
2026-05-04 15:18:18 192 218 7452 1045 10 DESCENT
2026-05-04 15:18:48 193 220 7422 1050 11 DESCENT
2026-05-04 15:19:18 196 223 7297 1055 10 DESCENT
2026-05-04 15:19:48 153 174 7408 1058 10 DESCENT
2026-05-04 15:20:18 141 157 5993 1060 13 ON FINAL
2026-05-04 15:20:48 109 120 5327 1061 14 ON FINAL
2026-05-04 15:21:18 56 61 5072 1062 15 ON FINAL
2026-05-04 15:21:48 22 25 5069 1065 14 TAXI TO APRON
2026-05-04 15:22:18 16 18 5088 1068 15 TAXI TO APRON
2026-05-04 15:22:48 6 7 5087 1070 15 TAXI TO APRON
2026-05-04 15:23:18 16 18 5097 1072 15 TAXI TO APRON
2026-05-04 15:23:48 1 2 5096 1074 15 TAXI TO APRON
  • Join our VA!

    It has been 11 years of great learning, friendships, and stories.

  • Sign up now!